Time;durP1;ratioP1;P1;durP2;ratioP2;P2;SDS_P1;SDS_P2;PMS_P1;PMS_P2;Temp;Humidity;BMP_temperature;BMP_pressure;BME280_temperature;BME280_humidity;BME280_pressure;Samples;Min_cycle;Max_cycle;Signal;HPM_P1;HPM_P2
2022/11/02 00:00:54;;;;;;;8.60;1.70;;;12.30;1.00;;;;;;5075595;28;20049;-29
2022/11/02 00:03:20;;;;;;;13.05;1.80;;;12.30;1.00;;;;;;5075825;28;20124;-27
2022/11/02 00:05:46;;;;;;;11.30;1.02;;;12.30;16.70;;;;;;5075324;28;20056;-28
2022/11/02 00:08:12;;;;;;;10.48;1.15;;;12.30;32.60;;;;;;5074180;28;20041;-28
2022/11/02 00:10:37;;;;;;;11.02;1.73;;;12.30;19.60;;;;;;5075355;28;20044;-28
2022/11/02 00:13:03;;;;;;;8.85;1.67;;;12.30;44.20;;;;;;5074341;28;20052;-27
2022/11/02 00:15:31;;;;;;;6.72;1.48;;;12.30;99.90;;;;;;5075319;28;20090;-27
2022/11/02 00:18:15;;;;;;;11.75;1.98;;;12.40;99.90;;;;;;5075226;28;20444;-28
2022/11/02 00:20:42;;;;;;;16.15;2.03;;;12.30;99.90;;;;;;5075237;28;20083;-26
2022/11/02 00:23:11;;;;;;;10.23;2.22;;;12.00;99.90;;;;;;5073933;28;20127;-25
2022/11/02 00:25:39;;;;;;;19.58;1.73;;;11.70;99.90;;;;;;5075018;28;20079;-25
2022/11/02 00:28:05;;;;;;;9.23;1.90;;;11.30;99.90;;;;;;5075035;28;20048;-24
2022/11/02 00:30:31;;;;;;;12.10;1.83;;;11.20;99.90;;;;;;5073838;28;20044;-25
2022/11/02 00:32:56;;;;;;;6.60;1.10;;;11.10;99.90;;;;;;5057360;28;20044;-26
2022/11/02 00:35:22;;;;;;;11.48;1.23;;;10.90;99.90;;;;;;5074928;28;20045;-26
2022/11/02 00:37:49;;;;;;;10.68;1.33;;;;;;;;;;5057231;28;20048;-27
2022/11/02 00:40:15;;;;;;;5.70;1.00;;;10.80;99.90;;;;;;5074843;28;20133;-27
2022/11/02 00:42:40;;;;;;;9.98;1.42;;;10.80;99.90;;;;;;5074395;28;20092;-26
2022/11/02 00:45:07;;;;;;;6.10;1.30;;;10.70;99.90;;;;;;5074594;28;20098;-27
2022/11/02 00:47:33;;;;;;;8.13;1.55;;;10.70;99.90;;;;;;5057153;28;20044;-28
2022/11/02 00:49:58;;;;;;;5.68;1.25;;;10.80;99.90;;;;;;5072822;28;20498;-27
2022/11/02 00:52:24;;;;;;;5.10;1.50;;;10.70;99.90;;;;;;5074405;28;20067;-28
2022/11/02 00:54:50;;;;;;;8.65;1.20;;;10.60;99.90;;;;;;5073525;28;20087;-29
2022/11/02 00:57:15;;;;;;;11.45;1.35;;;10.60;99.90;;;;;;5073745;28;20040;-28
2022/11/02 00:59:41;;;;;;;8.60;1.63;;;10.60;99.90;;;;;;5073438;28;20037;-28
2022/11/02 01:02:07;;;;;;;10.25;1.83;;;10.60;99.90;;;;;;5074346;28;20044;-28
2022/11/02 01:04:33;;;;;;;11.63;1.75;;;10.60;99.90;;;;;;5074847;28;20041;-29
2022/11/02 01:06:59;;;;;;;6.15;1.17;;;10.50;99.90;;;;;;5072953;28;20094;-28
2022/11/02 01:09:24;;;;;;;9.27;1.90;;;10.50;99.90;;;;;;5075044;28;20056;-27
2022/11/02 01:11:51;;;;;;;6.45;1.92;;;10.50;99.90;;;;;;5072893;28;20045;-27
2022/11/02 01:14:17;;;;;;;8.15;1.45;;;10.50;99.90;;;;;;5073052;28;20057;-28
2022/11/02 01:16:43;;;;;;;5.95;1.63;;;10.50;99.90;;;;;;5074138;28;20045;-28
2022/11/02 01:19:09;;;;;;;8.00;1.05;;;10.40;99.90;;;;;;5056233;28;20060;-28
2022/11/02 01:21:35;;;;;;;4.38;1.08;;;10.50;99.90;;;;;;5073608;28;20363;-27
2022/11/02 01:24:01;;;;;;;5.32;1.15;;;10.50;99.90;;;;;;5074038;28;20063;-28
2022/11/02 01:26:26;;;;;;;3.75;1.40;;;10.50;99.90;;;;;;5074770;28;20394;-28
2022/11/02 01:28:53;;;;;;;2.70;0.63;;;10.50;99.90;;;;;;5073983;28;20470;-27
2022/11/02 01:31:19;;;;;;;4.78;0.73;;;10.50;99.90;;;;;;5073930;28;20086;-28
2022/11/02 01:33:45;;;;;;;4.80;0.65;;;10.40;99.90;;;;;;5056257;28;20084;-28
2022/11/02 01:36:12;;;;;;;5.88;1.10;;;10.40;99.90;;;;;;5073835;28;20040;-28
2022/11/02 01:38:38;;;;;;;5.18;0.90;;;10.30;99.90;;;;;;5073549;28;20391;-28
2022/11/02 01:41:04;;;;;;;5.38;1.58;;;10.30;99.90;;;;;;5073844;28;20058;-28
2022/11/02 01:43:35;;;;;;;6.03;0.93;;;10.20;99.90;;;;;;5073349;28;20139;-28
2022/11/02 01:46:11;;;;;;;4.85;1.05;;;10.20;99.90;;;;;;5073733;28;20052;-30
2022/11/02 01:48:48;;;;;;;4.20;0.60;;;10.20;99.90;;;;;;5073977;28;20364;-27
2022/11/02 01:51:57;;;;;;;5.22;0.95;;;10.20;99.90;;;;;;5072600;28;20524;-28
2022/11/02 01:54:36;;;;;;;2.95;1.13;;;10.30;99.90;;;;;;5073202;28;20407;-27
2022/11/02 01:57:09;;;;;;;3.13;0.55;;;10.50;99.90;;;;;;5073901;28;20475;-28
2022/11/02 02:00:02;;;;;;;3.58;0.88;;;10.60;99.90;;;;;;5072368;28;20510;-28
2022/11/02 02:02:28;;;;;;;5.47;1.60;;;10.60;99.90;;;;;;5072259;28;20090;-28
2022/11/02 02:05:12;;;;;;;3.75;0.65;;;10.50;99.90;;;;;;5073181;28;20534;-28
2022/11/02 02:07:39;;;;;;;2.10;0.47;;;10.50;99.90;;;;;;5073555;28;20052;-28
2022/11/02 02:10:05;;;;;;;2.63;1.00;;;10.30;99.90;;;;;;5072619;28;20040;-29
2022/11/02 02:12:33;;;;;;;1.45;0.60;;;10.30;99.90;;;;;;5073476;28;20097;-28
2022/11/02 02:14:59;;;;;;;2.10;0.35;;;10.20;99.90;;;;;;5072491;28;20078;-28
2022/11/02 02:17:27;;;;;;;2.70;0.47;;;10.00;99.90;;;;;;5073424;28;20052;-28
2022/11/02 02:20:03;;;;;;;4.70;0.60;;;9.90;99.90;;;;;;5073697;28;20044;-29
2022/11/02 02:22:55;;;;;;;2.20;0.43;;;9.90;99.90;;;;;;5072261;28;20123;-28
2022/11/02 02:26:04;;;;;;;2.97;0.40;;;9.80;99.90;;;;;;5073329;28;20128;-28
2022/11/02 02:28:58;;;;;;;1.67;0.20;;;9.70;99.90;;;;;;5073383;28;20048;-28
2022/11/02 02:31:42;;;;;;;3.08;0.60;;;9.70;99.90;;;;;;5073923;28;20053;-28
2022/11/02 02:34:21;;;;;;;3.17;0.70;;;9.60;99.90;;;;;;5072181;28;20106;-28
2022/11/02 02:37:05;;;;;;;3.92;0.60;;;9.60;99.90;;;;;;5073343;28;20037;-28
2022/11/02 02:39:41;;;;;;;8.30;1.38;;;9.60;99.90;;;;;;5073259;28;20044;-28
2022/11/02 02:42:18;;;;;;;6.90;2.10;;;9.60;99.90;;;;;;5072663;28;20053;-29
2022/11/02 02:44:57;;;;;;;15.10;2.60;;;9.70;99.90;;;;;;5072180;28;20048;-28
2022/11/02 02:47:28;;;;;;;7.32;2.33;;;9.70;99.90;;;;;;5074016;28;20127;-28
2022/11/02 02:50:02;;;;;;;6.72;2.40;;;9.90;99.90;;;;;;5073065;28;20529;-28
2022/11/02 02:52:31;;;;;;;8.15;2.60;;;9.90;99.90;;;;;;5073708;28;20056;-28
2022/11/02 02:54:59;;;;;;;9.85;2.80;;;10.00;99.90;;;;;;5071837;28;20045;-28
2022/11/02 02:57:29;;;;;;;10.52;2.17;;;10.00;99.90;;;;;;5073082;28;20044;-28
2022/11/02 02:59:55;;;;;;;10.77;2.45;;;10.10;99.90;;;;;;5072328;28;20053;-28
2022/11/02 03:02:32;;;;;;;6.18;1.60;;;10.20;99.90;;;;;;5072971;28;20511;-27
2022/11/02 03:04:58;;;;;;;9.40;1.60;;;10.30;99.90;;;;;;5072965;28;20048;-28
2022/11/02 03:07:27;;;;;;;4.50;1.30;;;10.30;99.90;;;;;;5072851;28;20098;-28
2022/11/02 03:10:06;;;;;;;11.07;2.00;;;10.20;99.90;;;;;;5073720;28;20044;-29
2022/11/02 03:12:32;;;;;;;3.47;0.90;;;10.10;99.90;;;;;;5073252;28;20121;-28
2022/11/02 03:15:19;;;;;;;9.75;1.88;;;10.00;99.90;;;;;;5076246;28;20432;-29
2022/11/02 03:18:05;;;;;;;6.13;0.82;;;10.00;99.90;;;;;;5076148;28;20573;-28
2022/11/02 03:20:39;;;;;;;3.78;0.75;;;10.00;99.90;;;;;;5077200;28;20041;-28
2022/11/02 03:23:26;;;;;;;5.18;0.80;;;10.00;99.90;;;;;;5076000;28;20063;-28
2022/11/02 03:26:28;;;;;;;4.90;0.75;;;9.90;99.90;;;;;;5077046;28;20136;-29
2022/11/02 03:28:57;;;;;;;6.93;0.55;;;10.00;99.90;;;;;;5076170;28;20501;-28
2022/11/02 03:31:41;;;;;;;3.92;0.38;;;10.00;99.90;;;;;;5076169;28;20102;-28
2022/11/02 03:34:21;;;;;;;5.13;0.70;;;10.00;99.90;;;;;;5075729;28;20052;-29
2022/11/02 03:36:53;;;;;;;5.13;1.33;;;9.90;99.90;;;;;;5075169;28;20036;-28
2022/11/02 03:39:34;;;;;;;4.65;0.40;;;9.90;99.90;;;;;;5076352;28;20045;-28
2022/11/02 03:42:02;;;;;;;2.72;0.50;;;9.90;99.90;;;;;;5075151;28;20132;-27
2022/11/02 03:44:32;;;;;;;4.43;0.45;;;9.80;99.90;;;;;;5075859;28;20135;-27
2022/11/02 03:47:01;;;;;;;5.22;0.73;;;9.80;99.90;;;;;;5075825;28;20059;-29
2022/11/02 03:49:29;;;;;;;4.40;0.80;;;9.80;99.90;;;;;;5074915;28;20053;-28
2022/11/02 03:51:58;;;;;;;5.00;0.60;;;9.80;99.90;;;;;;5075865;28;20061;-28
2022/11/02 03:54:50;;;;;;;7.15;1.13;;;9.80;99.90;;;;;;5075819;28;20162;-28
2022/11/02 03:57:27;;;;;;;5.30;0.75;;;9.80;99.90;;;;;;5076268;28;20036;-28
2022/11/02 03:59:53;;;;;;;5.85;1.15;;;9.80;99.90;;;;;;5074970;28;20044;-28
2022/11/02 04:02:18;;;;;;;9.98;1.10;;;9.80;99.90;;;;;;5075828;28;20094;-28
2022/11/02 04:04:49;;;;;;;10.50;1.35;;;9.80;99.90;;;;;;5074253;28;20044;-28
2022/11/02 04:07:20;;;;;;;8.48;1.10;;;9.80;99.90;;;;;;5075355;28;20059;-28
2022/11/02 04:09:46;;;;;;;10.43;1.40;;;9.80;99.90;;;;;;5074469;28;20502;-28
2022/11/02 04:14:56;;;;;;;15.65;1.10;;;9.80;99.90;;;;;;5075366;28;20475;-29
2022/11/02 04:20:06;;;;;;;9.40;1.40;;;9.80;99.90;;;;;;5075822;28;20095;-28
2022/11/02 04:25:18;;;;;;;4.78;0.65;;;10.00;99.90;;;;;;5075438;28;20067;-28
2022/11/02 04:27:46;;;;;;;10.25;1.30;;;10.00;99.90;;;;;;5074653;28;20533;-29
2022/11/02 04:30:14;;;;;;;9.30;1.10;;;10.00;99.90;;;;;;5075532;28;20123;-29
2022/11/02 04:35:26;;;;;;;7.07;1.17;;;10.20;99.90;;;;;;5074257;28;20067;-27
2022/11/02 04:40:36;;;;;;;9.95;1.10;;;10.10;99.90;;;;;;5075702;28;20044;-27
2022/11/02 04:43:01;;;;;;;6.68;1.13;;;10.00;99.90;;;;;;5074565;28;20469;-28
2022/11/02 04:45:27;;;;;;;10.07;1.35;;;9.90;99.90;;;;;;5074614;28;20055;-28
2022/11/02 04:48:02;;;;;;;12.23;1.20;;;10.00;99.90;;;;;;5073730;28;20045;-29
2022/11/02 04:50:29;;;;;;;12.55;1.33;;;9.90;99.90;;;;;;5075016;28;20064;-29
2022/11/02 04:53:00;;;;;;;13.30;1.38;;;9.80;99.90;;;;;;5073586;28;20186;-29
2022/11/02 04:55:26;;;;;;;7.38;1.17;;;9.90;99.90;;;;;;5073393;28;20076;-29
2022/11/02 04:57:52;;;;;;;10.77;1.73;;;9.90;99.90;;;;;;5074503;28;20080;-28
2022/11/02 05:00:19;;;;;;;11.13;2.03;;;9.90;99.90;;;;;;5074450;28;20505;-29
2022/11/02 05:02:46;;;;;;;8.88;1.33;;;9.90;99.90;;;;;;5073186;28;20044;-29
2022/11/02 05:05:13;;;;;;;8.18;1.52;;;9.90;99.90;;;;;;5073285;28;20048;-29
2022/11/02 05:07:39;;;;;;;9.25;1.27;;;9.80;99.90;;;;;;5074173;28;20094;-29
2022/11/02 05:10:04;;;;;;;9.88;1.80;;;9.80;99.90;;;;;;5074831;28;20132;-28
2022/11/02 05:12:30;;;;;;;7.68;1.40;;;9.90;99.90;;;;;;5056349;28;20044;-29
2022/11/02 05:14:56;;;;;;;12.90;2.67;;;9.90;99.90;;;;;;5073529;28;20048;-28
2022/11/02 05:17:23;;;;;;;17.15;1.77;;;9.90;99.90;;;;;;5073835;28;20486;-28
2022/11/02 05:19:48;;;;;;;9.45;2.03;;;9.90;99.90;;;;;;5072843;28;20051;-28
2022/11/02 05:22:14;;;;;;;8.77;1.83;;;9.90;99.90;;;;;;5073127;28;20143;-29
2022/11/02 05:24:39;;;;;;;11.65;1.92;;;9.90;99.90;;;;;;5074271;28;20111;-29
2022/11/02 05:27:05;;;;;;;6.80;1.20;;;9.80;99.90;;;;;;5074178;28;20440;-29
2022/11/02 05:29:31;;;;;;;13.05;1.40;;;9.80;99.90;;;;;;5074278;28;20373;-29
2022/11/02 05:31:57;;;;;;;7.47;1.95;;;9.80;99.90;;;;;;5073886;28;20070;-29
2022/11/02 05:34:23;;;;;;;8.10;1.38;;;9.80;99.90;;;;;;5072695;28;20048;-29
2022/11/02 05:36:48;;;;;;;8.43;0.90;;;9.90;99.90;;;;;;5072656;28;20075;-29
2022/11/02 05:39:14;;;;;;;11.75;1.67;;;9.90;99.90;;;;;;5073787;28;20486;-28
2022/11/02 05:41:40;;;;;;;8.23;1.42;;;9.90;99.90;;;;;;5073837;28;20048;-28
2022/11/02 05:44:06;;;;;;;11.00;1.75;;;9.90;99.90;;;;;;5072585;28;20059;-29
2022/11/02 05:46:32;;;;;;;8.02;1.90;;;9.90;99.90;;;;;;5073629;28;20045;-29
2022/11/02 05:48:58;;;;;;;8.95;1.95;;;9.90;99.90;;;;;;5074411;28;20071;-29
2022/11/02 05:51:24;;;;;;;13.65;2.40;;;10.00;99.90;;;;;;5074876;28;20467;-28
2022/11/02 05:53:49;;;;;;;11.35;2.10;;;10.00;99.90;;;;;;5072498;28;20048;-27
2022/11/02 05:56:15;;;;;;;10.23;2.17;;;10.10;99.90;;;;;;5073234;28;20040;-29
2022/11/02 05:58:41;;;;;;;10.52;1.90;;;10.10;99.90;;;;;;5073541;28;20067;-29
2022/11/02 06:01:08;;;;;;;7.85;1.65;;;10.20;99.90;;;;;;5074098;28;20066;-29
2022/11/02 06:03:35;;;;;;;8.13;1.27;;;10.20;99.90;;;;;;5074405;28;20053;-28
2022/11/02 06:06:06;;;;;;;12.98;2.00;;;10.20;99.90;;;;;;5038962;28;20048;-29
2022/11/02 06:08:33;;;;;;;12.90;2.30;;;10.20;99.90;;;;;;5072604;28;20402;-29
2022/11/02 06:11:07;;;;;;;10.90;2.38;;;10.20;99.90;;;;;;5055553;28;20056;-29
2022/11/02 06:13:33;;;;;;;11.20;1.92;;;10.20;99.90;;;;;;5072527;28;20098;-28
2022/11/02 06:16:01;;;;;;;11.68;2.50;;;10.20;99.90;;;;;;5074573;28;20371;-29
2022/11/02 06:18:26;;;;;;;16.15;1.85;;;10.20;99.90;;;;;;5073305;28;20095;-29
2022/11/02 06:20:52;;;;;;;13.73;2.25;;;10.20;99.90;;;;;;5073087;28;20506;-31
2022/11/02 06:23:18;;;;;;;8.75;1.70;;;10.20;99.90;;;;;;5073916;28;20131;-32
2022/11/02 06:25:56;;;;;;;13.65;1.65;;;10.10;99.90;;;;;;5073887;28;20037;-33
2022/11/02 06:28:22;;;;;;;12.02;1.65;;;10.00;99.90;;;;;;5072711;28;20045;-32
2022/11/02 06:30:49;;;;;;;20.80;3.45;;;10.00;99.90;;;;;;5072140;28;20045;-32
2022/11/02 06:33:15;;;;;;;13.55;1.90;;;10.00;99.90;;;;;;5073286;28;20044;-33
2022/11/02 06:35:47;;;;;;;10.98;1.92;;;10.00;99.90;;;;;;5072082;28;20533;-33
2022/11/02 06:38:14;;;;;;;15.98;3.33;;;10.00;99.90;;;;;;5073273;28;20390;-33
2022/11/02 06:40:40;;;;;;;18.52;2.95;;;10.00;99.90;;;;;;5072044;28;20047;-38
2022/11/02 06:43:05;;;;;;;10.43;1.92;;;10.10;99.90;;;;;;5073179;28;20099;-39
2022/11/02 06:45:31;;;;;;;13.23;1.95;;;10.10;99.90;;;;;;5073061;28;20444;-36
2022/11/02 06:47:57;;;;;;;5.90;1.00;;;10.10;99.90;;;;;;5075978;28;20051;-35
2022/11/02 06:50:23;;;;;;;10.43;1.73;;;10.00;99.90;;;;;;5075353;28;20113;-32
2022/11/02 06:52:50;;;;;;;9.68;1.85;;;9.90;99.90;;;;;;5075675;28;20084;-32
2022/11/02 06:55:16;;;;;;;7.25;1.25;;;9.90;99.90;;;;;;5075807;28;20063;-31
2022/11/02 06:57:42;;;;;;;15.45;1.88;;;9.90;99.90;;;;;;5075779;28;20056;-33
2022/11/02 07:00:11;;;;;;;18.27;2.45;;;10.00;99.90;;;;;;5076676;28;20049;-35
2022/11/02 07:02:40;;;;;;;12.23;1.70;;;9.90;99.90;;;;;;5076089;28;20098;-33
2022/11/02 07:05:09;;;;;;;11.07;1.60;;;10.00;99.90;;;;;;5076834;28;20083;-33
2022/11/02 07:07:35;;;;;;;14.93;1.52;;;9.90;99.90;;;;;;5075375;28;20048;-33
2022/11/02 07:10:03;;;;;;;9.98;1.63;;;9.90;99.90;;;;;;5076604;28;20048;-32
2022/11/02 07:12:31;;;;;;;12.77;2.08;;;10.00;99.90;;;;;;5076552;28;20091;-32
2022/11/02 07:14:57;;;;;;;8.27;2.08;;;10.00;99.90;;;;;;5075519;28;20132;-30
2022/11/02 07:17:22;;;;;;;7.57;1.40;;;10.10;99.90;;;;;;5075476;28;20127;-32
2022/11/02 07:19:48;;;;;;;9.68;1.05;;;10.00;99.90;;;;;;5075192;28;20084;-31
2022/11/02 07:22:13;;;;;;;9.57;1.52;;;9.80;99.90;;;;;;5076801;28;20048;-30
2022/11/02 07:24:39;;;;;;;7.22;1.77;;;9.90;99.90;;;;;;5076277;28;20052;-30
2022/11/02 07:27:05;;;;;;;5.28;0.80;;;9.80;99.90;;;;;;5076164;28;20097;-31
2022/11/02 07:29:31;;;;;;;8.38;1.35;;;9.70;99.90;;;;;;5076067;28;20052;-31
2022/11/02 07:31:56;;;;;;;9.20;1.52;;;9.70;99.90;;;;;;5076116;28;20091;-31
2022/11/02 07:34:22;;;;;;;11.18;1.27;;;9.60;99.90;;;;;;5076082;28;20483;-33
2022/11/02 07:36:48;;;;;;;4.95;0.80;;;9.60;99.90;;;;;;5041500;28;20445;-32
2022/11/02 07:39:14;;;;;;;7.95;1.55;;;9.60;99.90;;;;;;5074804;28;20079;-31
2022/11/02 07:41:39;;;;;;;8.43;1.10;;;9.60;99.90;;;;;;5075981;28;20044;-32
2022/11/02 07:44:05;;;;;;;11.05;1.80;;;9.60;99.90;;;;;;5075921;28;20044;-31
2022/11/02 07:46:31;;;;;;;7.30;1.20;;;9.60;99.90;;;;;;5074672;28;20037;-33
2022/11/02 07:48:57;;;;;;;8.90;1.25;;;9.70;99.90;;;;;;5076394;28;20048;-33
2022/11/02 07:51:23;;;;;;;7.85;0.70;;;9.60;99.90;;;;;;5076967;28;20053;-32
2022/11/02 07:53:48;;;;;;;12.80;1.63;;;9.70;99.90;;;;;;5075728;28;20052;-33
2022/11/02 07:56:14;;;;;;;6.15;1.23;;;9.80;99.90;;;;;;5076003;28;20094;-33
2022/11/02 07:58:40;;;;;;;6.63;1.50;;;9.80;99.90;;;;;;5075358;28;20108;-32
2022/11/02 08:01:06;;;;;;;7.13;1.25;;;9.90;99.90;;;;;;5057709;28;20044;-31
2022/11/02 08:03:31;;;;;;;7.70;0.98;;;10.00;99.90;;;;;;5064438;28;20039;-32
2022/11/02 08:06:00;;;;;;;4.95;0.68;;;10.20;99.90;;;;;;5095643;28;20178;-32
2022/11/02 08:08:32;;;;;;;10.05;1.38;;;10.30;99.90;;;;;;5096465;28;20096;-32
2022/11/02 08:11:04;;;;;;;12.20;1.13;;;10.40;99.90;;;;;;5095672;28;20044;-32
2022/11/02 08:13:30;;;;;;;7.10;1.20;;;10.40;99.90;;;;;;5094543;28;20070;-30
2022/11/02 08:15:55;;;;;;;6.05;1.30;;;10.50;99.90;;;;;;5094788;28;20052;-32
2022/11/02 08:18:23;;;;;;;11.40;1.48;;;10.50;99.90;;;;;;5095494;28;20389;-31
2022/11/02 08:20:49;;;;;;;9.07;1.27;;;10.70;99.90;;;;;;5094176;28;20443;-32
2022/11/02 08:23:17;;;;;;;8.73;1.40;;;10.80;99.90;;;;;;5095375;28;20482;-31
2022/11/02 08:25:44;;;;;;;12.10;1.83;;;10.80;99.90;;;;;;5095318;28;20044;-31
2022/11/02 08:28:13;;;;;;;9.55;1.63;;;10.80;99.90;;;;;;5078315;28;20135;-31
2022/11/02 08:30:39;;;;;;;4.38;1.20;;;11.00;99.90;;;;;;5095279;28;20043;-33
2022/11/02 08:33:07;;;;;;;13.15;2.00;;;11.10;99.90;;;;;;5094086;28;20048;-32
2022/11/02 08:35:33;;;;;;;5.43;0.85;;;11.20;99.90;;;;;;5095201;28;20149;-30
2022/11/02 08:37:59;;;;;;;8.60;1.20;;;11.20;99.90;;;;;;5093985;28;20055;-30
2022/11/02 08:40:26;;;;;;;10.00;2.40;;;11.20;99.90;;;;;;5095089;28;20382;-30
2022/11/02 08:42:59;;;;;;;12.15;1.65;;;11.10;99.90;;;;;;5094699;28;20474;-30
2022/11/02 08:45:26;;;;;;;6.57;1.23;;;11.10;99.90;;;;;;5094935;28;20048;-31
2022/11/02 08:47:52;;;;;;;7.22;1.77;;;11.20;99.90;;;;;;5094993;28;20052;-29
2022/11/02 08:50:18;;;;;;;12.52;2.00;;;11.10;99.90;;;;;;5094962;28;20087;-31
2022/11/02 08:52:43;;;;;;;6.80;1.45;;;11.10;99.90;;;;;;5094878;28;20094;-29
2022/11/02 08:55:09;;;;;;;5.38;0.85;;;11.20;99.90;;;;;;5095400;28;20120;-29
2022/11/02 08:57:52;;;;;;;8.50;1.35;;;11.20;99.90;;;;;;5093583;28;20078;-29
2022/11/02 09:00:20;;;;;;;11.43;1.83;;;11.20;99.90;;;;;;5095361;28;20055;-29
2022/11/02 09:02:58;;;;;;;11.45;3.70;;;11.30;99.90;;;;;;5094925;28;20359;-29
2022/11/02 09:05:24;;;;;;;6.78;1.58;;;11.30;99.90;;;;;;5094461;28;20474;-30
2022/11/02 09:08:01;;;;;;;13.20;2.22;;;11.30;99.90;;;;;;5094492;28;20074;-29
2022/11/02 09:10:28;;;;;;;13.40;1.80;;;11.40;99.90;;;;;;5094119;28;20048;-30
2022/11/02 09:12:54;;;;;;;10.45;1.85;;;11.40;99.90;;;;;;5094480;28;20109;-29
2022/11/02 09:15:20;;;;;;;8.38;1.50;;;11.50;99.90;;;;;;5094471;28;20403;-29
2022/11/02 09:17:47;;;;;;;10.18;1.25;;;11.60;99.90;;;;;;5094947;28;20052;-28
2022/11/02 09:20:15;;;;;;;11.40;1.98;;;11.50;99.90;;;;;;5094378;28;20043;-29
2022/11/02 09:22:40;;;;;;;11.43;2.00;;;11.60;99.90;;;;;;5094353;28;20075;-29
2022/11/02 09:25:07;;;;;;;9.52;1.83;;;11.70;99.90;;;;;;5094184;28;20087;-29
2022/11/02 09:27:32;;;;;;;8.48;1.42;;;11.80;1.00;;;;;;5094493;28;20421;-29
2022/11/02 09:29:58;;;;;;;7.95;1.77;;;11.80;4.60;;;;;;5094182;28;20063;-28
2022/11/02 09:32:24;;;;;;;13.35;1.73;;;12.00;1.00;;;;;;5094428;28;20130;-29
2022/11/02 09:34:50;;;;;;;11.98;2.45;;;12.10;99.90;;;;;;5094076;28;20083;-28
2022/11/02 09:37:16;;;;;;;9.38;1.77;;;12.10;1.00;;;;;;5093160;28;20048;-29
2022/11/02 09:39:42;;;;;;;10.48;2.05;;;12.20;70.10;;;;;;5093992;28;20050;-28
2022/11/02 09:42:30;;;;;;;9.43;1.90;;;12.20;99.90;;;;;;5094577;28;20044;-29
2022/11/02 09:45:06;;;;;;;6.28;1.45;;;12.30;1.00;;;;;;5092693;28;20052;-29
2022/11/02 09:47:42;;;;;;;11.18;1.88;;;12.20;1.00;;;;;;5093968;28;20044;-29
2022/11/02 09:50:16;;;;;;;5.90;1.45;;;12.20;99.90;;;;;;5075814;28;20063;-27
2022/11/02 09:52:44;;;;;;;8.75;1.85;;;12.30;35.80;;;;;;5093916;28;20056;-28
2022/11/02 09:55:17;;;;;;;13.00;2.35;;;12.20;1.00;;;;;;5093851;28;20085;-28
2022/11/02 09:57:47;;;;;;;15.30;2.20;;;12.20;99.90;;;;;;5093733;28;20056;-29
2022/11/02 10:00:14;;;;;;;10.38;1.73;;;12.00;1.00;;;;;;5093863;28;20048;-28
2022/11/02 10:02:52;;;;;;;7.88;1.42;;;11.90;2.40;;;;;;5094275;28;20158;-28
2022/11/02 10:05:18;;;;;;;10.65;2.03;;;11.90;99.90;;;;;;5093773;28;20450;-29
2022/11/02 10:08:09;;;;;;;12.18;2.33;;;11.90;1.00;;;;;;5093649;28;20048;-29
2022/11/02 10:10:57;;;;;;;7.38;1.63;;;12.10;29.10;;;;;;5083220;28;20055;-29
2022/11/02 10:13:55;;;;;;;22.17;1.50;;;12.30;99.90;;;;;;5094000;28;20040;-28
2022/11/02 10:16:50;;;;;;;10.48;1.33;;;12.40;91.70;;;;;;5093681;28;20036;-28
2022/11/02 10:19:19;;;;;;;5.78;1.33;;;12.50;22.50;;;;;;5082961;28;20379;-28
2022/11/02 10:21:48;;;;;;;15.32;1.60;;;12.50;1.00;;;;;;5093457;28;20375;-29
2022/11/02 10:24:24;;;;;;;11.73;2.38;;;12.60;99.90;;;;;;5097732;28;20052;-28
2022/11/02 10:26:56;;;;;;;10.77;2.08;;;12.60;99.90;;;;;;5098199;28;20044;-30
2022/11/02 10:29:44;;;;;;;9.50;1.88;;;12.60;1.00;;;;;;5080646;28;20131;-29
2022/11/02 10:32:11;;;;;;;9.55;1.88;;;12.70;99.90;;;;;;5096379;28;20048;-29
2022/11/02 10:34:39;;;;;;;12.45;1.67;;;12.70;99.90;;;;;;5096535;28;20394;-28
2022/11/02 10:37:25;;;;;;;7.40;1.60;;;12.70;3.90;;;;;;5098029;28;20043;-28
2022/11/02 10:40:03;;;;;;;16.75;2.58;;;12.70;99.90;;;;;;5098024;28;20063;-29
2022/11/02 10:43:07;;;;;;;8.55;1.45;;;12.50;99.90;;;;;;5097657;28;20044;-28
2022/11/02 10:45:56;;;;;;;11.68;1.67;;;12.30;99.90;;;;;;5096094;28;20048;-28
2022/11/02 10:49:16;;;;;;;9.27;1.42;;;12.10;99.90;;;;;;5098135;28;20131;-29
2022/11/02 10:51:42;;;;;;;9.75;1.70;;;12.00;94.10;;;;;;5074402;28;20057;-28
2022/11/02 10:54:13;;;;;;;14.65;2.33;;;11.80;99.90;;;;;;5092604;28;20056;-28
2022/11/02 10:56:41;;;;;;;12.68;2.42;;;11.80;99.90;;;;;;5097429;28;20090;-29
2022/11/02 10:59:19;;;;;;;16.30;1.50;;;11.90;99.90;;;;;;5096798;28;20555;-29
2022/11/02 11:02:12;;;;;;;5.80;1.10;;;11.80;1.00;;;;;;5097079;28;20133;-28
2022/11/02 11:04:39;;;;;;;13.00;1.60;;;11.80;99.90;;;;;;5094162;28;20056;-29
2022/11/02 11:07:12;;;;;;;10.88;1.95;;;11.70;99.90;;;;;;5097017;28;20040;-28
2022/11/02 11:09:54;;;;;;;10.18;1.50;;;11.80;99.90;;;;;;5097211;28;20058;-29
2022/11/02 11:12:31;;;;;;;6.40;1.30;;;11.80;99.90;;;;;;5097142;28;20114;-29
2022/11/02 11:14:59;;;;;;;5.38;1.40;;;11.70;99.90;;;;;;5097396;28;20375;-28
2022/11/02 11:17:38;;;;;;;8.30;1.98;;;11.70;1.00;;;;;;5096717;28;20044;-29
2022/11/02 11:20:23;;;;;;;10.57;1.20;;;11.70;1.00;;;;;;5096302;28;20474;-29
2022/11/02 11:23:19;;;;;;;7.60;1.02;;;11.70;99.90;;;;;;5097467;28;20086;-29
2022/11/02 11:26:03;;;;;;;9.50;1.48;;;11.60;68.60;;;;;;5096502;28;20036;-29
2022/11/02 11:28:39;;;;;;;9.10;1.50;;;11.60;99.90;;;;;;5095215;28;20140;-28
2022/11/02 11:31:10;;;;;;;10.70;2.00;;;11.80;99.90;;;;;;5096528;28;20059;-28
2022/11/02 11:33:56;;;;;;;8.18;1.65;;;11.80;99.90;;;;;;5094912;28;20428;-28
2022/11/02 11:36:29;;;;;;;13.55;2.78;;;11.80;1.00;;;;;;5096391;28;20149;-28
2022/11/02 11:39:01;;;;;;;11.35;1.52;;;11.80;99.90;;;;;;5096379;28;20504;-28
2022/11/02 11:41:28;;;;;;;13.48;1.77;;;12.10;1.00;;;;;;5097188;28;20036;-29
2022/11/02 11:43:54;;;;;;;10.10;1.27;;;12.50;1.00;;;;;;5096767;28;20055;-29
2022/11/02 11:46:20;;;;;;;9.23;1.20;;;12.90;99.90;;;;;;5096129;28;20044;-28
2022/11/02 11:48:54;;;;;;;8.82;1.13;;;13.20;58.80;;;;;;5096116;28;20528;-28
2022/11/02 11:51:30;;;;;;;12.95;1.98;;;13.50;1.00;;;;;;5096053;28;20060;-28
2022/11/02 11:54:20;;;;;;;6.80;1.20;;;13.50;1.00;;;;;;5096017;28;20098;-29
2022/11/02 11:56:46;;;;;;;5.50;0.98;;;13.40;1.00;;;;;;5096869;28;20033;-29
2022/11/02 11:59:42;;;;;;;8.25;1.38;;;13.40;1.00;;;;;;5095918;28;20474;-29
2022/11/02 12:02:28;;;;;;;10.85;1.00;;;13.30;99.90;;;;;;5096442;28;20087;-29
2022/11/02 12:05:11;;;;;;;8.50;1.90;;;13.30;1.00;;;;;;5095501;28;20402;-29
2022/11/02 12:07:56;;;;;;;5.53;1.05;;;13.50;99.90;;;;;;5095750;28;20040;-29
2022/11/02 12:10:37;;;;;;;7.82;1.65;;;13.60;1.00;;;;;;5096245;28;20428;-29
2022/11/02 12:13:02;;;;;;;8.48;1.33;;;13.80;1.00;;;;;;5095685;28;20059;-29
2022/11/02 12:15:46;;;;;;;11.13;1.60;;;13.70;99.90;;;;;;5095642;28;20044;-28
2022/11/02 12:18:38;;;;;;;7.43;1.40;;;13.90;99.90;;;;;;5095578;28;20051;-28
2022/11/02 12:21:36;;;;;;;4.85;0.85;;;14.00;99.90;;;;;;5095546;28;20083;-29
2022/11/02 12:24:29;;;;;;;4.45;1.13;;;14.10;99.90;;;;;;5083193;28;20056;-29
2022/11/02 12:27:29;;;;;;;10.05;1.80;;;14.20;99.90;;;;;;5095347;28;20198;-29
2022/11/02 12:30:17;;;;;;;10.00;1.60;;;14.20;99.90;;;;;;5095347;28;20044;-29
2022/11/02 12:33:01;;;;;;;5.97;1.15;;;14.10;99.90;;;;;;5095591;28;20363;-28
2022/11/02 12:35:55;;;;;;;8.02;1.65;;;14.10;99.90;;;;;;5095817;28;20044;-29
2022/11/02 12:38:24;;;;;;;7.57;1.85;;;14.30;1.00;;;;;;5095206;28;20048;-29
2022/11/02 12:41:03;;;;;;;13.90;2.28;;;14.30;1.00;;;;;;5095926;28;20129;-29
2022/11/02 12:44:02;;;;;;;12.10;1.35;;;14.50;99.90;;;;;;5095381;28;20048;-29
2022/11/02 12:46:55;;;;;;;6.07;0.95;;;14.60;99.90;;;;;;5090962;28;20105;-29
2022/11/02 12:49:21;;;;;;;;;;;14.30;99.90;;;;;;5096218;28;20044;-28
2022/11/02 12:51:56;;;;;;;8.10;1.67;;;13.90;99.90;;;;;;5095400;28;20342;-28
2022/11/02 12:54:33;;;;;;;10.85;1.50;;;13.50;1.00;;;;;;5094971;28;20474;-29
2022/11/02 12:56:59;;;;;;;10.50;2.03;;;13.30;1.00;;;;;;5094814;28;20040;-29
2022/11/02 12:59:31;;;;;;;9.75;1.63;;;13.40;1.00;;;;;;5094687;28;20040;-30
2022/11/02 13:02:04;;;;;;;8.15;1.65;;;13.20;99.90;;;;;;5093500;28;20044;-28
2022/11/02 13:04:35;;;;;;;9.45;2.05;;;13.20;99.90;;;;;;5095007;28;20044;-29
2022/11/02 13:07:10;;;;;;;15.38;2.60;;;13.30;1.00;;;;;;5094499;28;20048;-30
2022/11/02 13:09:43;;;;;;;7.85;2.00;;;13.80;1.00;;;;;;5095420;28;20063;-29
2022/11/02 13:12:22;;;;;;;9.63;1.52;;;14.20;99.90;;;;;;5095139;28;20047;-29
2022/11/02 13:14:50;;;;;;;13.02;1.88;;;14.20;99.90;;;;;;5094627;28;20044;-29
2022/11/02 13:17:49;;;;;;;6.90;1.10;;;14.10;1.00;;;;;;5093248;28;20513;-29
2022/11/02 13:20:23;;;;;;;9.70;1.33;;;13.80;99.90;;;;;;5094396;28;20056;-29
2022/11/02 13:23:04;;;;;;;9.68;2.25;;;13.80;1.00;;;;;;5094933;28;20094;-29
2022/11/02 13:25:53;;;;;;;11.20;1.95;;;13.80;1.00;;;;;;5094598;28;20389;-28